sensor_id;sensor_type;location;lat;lon;timestamp;pressure;altitude;pressure_sealevel;temperature;humidity
57250;BME280;43102;52.014;-0.680;2023-02-03T00:00:00;101850;;;9.93;77.74
57250;BME280;43102;52.014;-0.680;2023-02-03T00:01:00;101850;;;9.93;77.74
57250;BME280;43102;52.014;-0.680;2023-02-03T00:02:00;101851;;;10.02;77.60
57250;BME280;43102;52.014;-0.680;2023-02-03T00:03:00;101851;;;10.02;77.60
57250;BME280;43102;52.014;-0.680;2023-02-03T00:04:00;101851;;;10.02;77.60
57250;BME280;43102;52.014;-0.680;2023-02-03T00:05:00;101851;;;10.02;77.60
57250;BME280;43102;52.014;-0.680;2023-02-03T00:06:00;101851;;;10.02;77.60
57250;BME280;43102;52.014;-0.680;2023-02-03T00:07:00;101844;;;10.01;77.48
57250;BME280;43102;52.014;-0.680;2023-02-03T00:08:00;101844;;;10.01;77.48
57250;BME280;43102;52.014;-0.680;2023-02-03T00:09:00;101844;;;10.01;77.48
57250;BME280;43102;52.014;-0.680;2023-02-03T00:10:00;101844;;;10.01;77.48
57250;BME280;43102;52.014;-0.680;2023-02-03T00:11:00;101844;;;10.01;77.48
57250;BME280;43102;52.014;-0.680;2023-02-03T00:12:00;101834;;;9.98;77.77
57250;BME280;43102;52.014;-0.680;2023-02-03T00:13:00;101834;;;9.98;77.77
57250;BME280;43102;52.014;-0.680;2023-02-03T00:14:00;101834;;;9.98;77.77
57250;BME280;43102;52.014;-0.680;2023-02-03T00:15:00;101834;;;9.98;77.77
57250;BME280;43102;52.014;-0.680;2023-02-03T00:16:00;101834;;;9.98;77.77
57250;BME280;43102;52.014;-0.680;2023-02-03T00:17:00;101830;;;9.94;77.94
57250;BME280;43102;52.014;-0.680;2023-02-03T00:18:00;101830;;;9.94;77.94
57250;BME280;43102;52.014;-0.680;2023-02-03T00:19:00;101830;;;9.94;77.94
57250;BME280;43102;52.014;-0.680;2023-02-03T00:20:00;101830;;;9.94;77.94
57250;BME280;43102;52.014;-0.680;2023-02-03T00:21:00;101830;;;9.94;77.94
57250;BME280;43102;52.014;-0.680;2023-02-03T00:22:00;101821;;;9.93;77.94
57250;BME280;43102;52.014;-0.680;2023-02-03T00:23:02;101821;;;9.93;77.94
57250;BME280;43102;52.014;-0.680;2023-02-03T00:24:00;101821;;;9.93;77.94
57250;BME280;43102;52.014;-0.680;2023-02-03T00:25:00;101821;;;9.93;77.94
57250;BME280;43102;52.014;-0.680;2023-02-03T00:26:08;101821;;;9.93;77.94
57250;BME280;43102;52.014;-0.680;2023-02-03T00:27:00;101826;;;9.93;78.17
57250;BME280;43102;52.014;-0.680;2023-02-03T00:28:00;101826;;;9.93;78.17
57250;BME280;43102;52.014;-0.680;2023-02-03T00:29:00;101826;;;9.93;78.17
57250;BME280;43102;52.014;-0.680;2023-02-03T00:30:00;101826;;;9.93;78.17
57250;BME280;43102;52.014;-0.680;2023-02-03T00:31:00;101826;;;9.93;78.17
57250;BME280;43102;52.014;-0.680;2023-02-03T00:32:00;101834;;;10.03;77.77
57250;BME280;43102;52.014;-0.680;2023-02-03T00:33:00;101834;;;10.03;77.77
57250;BME280;43102;52.014;-0.680;2023-02-03T00:34:00;101834;;;10.03;77.77
57250;BME280;43102;52.014;-0.680;2023-02-03T00:35:00;101834;;;10.03;77.77
57250;BME280;43102;52.014;-0.680;2023-02-03T00:36:04;101834;;;10.03;77.77
57250;BME280;43102;52.014;-0.680;2023-02-03T00:37:00;101832;;;10.08;77.58
57250;BME280;43102;52.014;-0.680;2023-02-03T00:38:00;101832;;;10.08;77.58
57250;BME280;43102;52.014;-0.680;2023-02-03T00:39:00;101832;;;10.08;77.58
57250;BME280;43102;52.014;-0.680;2023-02-03T00:40:00;101832;;;10.08;77.58
57250;BME280;43102;52.014;-0.680;2023-02-03T00:41:00;101832;;;10.08;77.58
57250;BME280;43102;52.014;-0.680;2023-02-03T00:42:00;101836;;;10.05;77.89
57250;BME280;43102;52.014;-0.680;2023-02-03T00:43:01;101836;;;10.05;77.89
57250;BME280;43102;52.014;-0.680;2023-02-03T00:44:00;101836;;;10.05;77.89
57250;BME280;43102;52.014;-0.680;2023-02-03T00:45:00;101836;;;10.05;77.89
57250;BME280;43102;52.014;-0.680;2023-02-03T00:46:00;101836;;;10.05;77.89
57250;BME280;43102;52.014;-0.680;2023-02-03T00:47:00;101825;;;10.04;78.12
57250;BME280;43102;52.014;-0.680;2023-02-03T00:48:00;101825;;;10.04;78.12
57250;BME280;43102;52.014;-0.680;2023-02-03T00:49:00;101825;;;10.04;78.12
57250;BME280;43102;52.014;-0.680;2023-02-03T00:50:00;101825;;;10.04;78.12
57250;BME280;43102;52.014;-0.680;2023-02-03T00:51:00;101825;;;10.04;78.12
57250;BME280;43102;52.014;-0.680;2023-02-03T00:52:00;101810;;;10.08;77.83
57250;BME280;43102;52.014;-0.680;2023-02-03T00:53:00;101810;;;10.08;77.83
57250;BME280;43102;52.014;-0.680;2023-02-03T00:54:00;101810;;;10.08;77.83
57250;BME280;43102;52.014;-0.680;2023-02-03T00:55:00;101810;;;10.08;77.83
57250;BME280;43102;52.014;-0.680;2023-02-03T00:56:00;101810;;;10.08;77.83
57250;BME280;43102;52.014;-0.680;2023-02-03T00:57:00;101818;;;10.10;78.09
57250;BME280;43102;52.014;-0.680;2023-02-03T00:58:00;101818;;;10.10;78.09
57250;BME280;43102;52.014;-0.680;2023-02-03T00:59:00;101818;;;10.10;78.09
57250;BME280;43102;52.014;-0.680;2023-02-03T01:00:00;101818;;;10.10;78.09
57250;BME280;43102;52.014;-0.680;2023-02-03T01:01:00;101818;;;10.10;78.09
57250;BME280;43102;52.014;-0.680;2023-02-03T01:02:00;101823;;;10.12;78.23
57250;BME280;43102;52.014;-0.680;2023-02-03T01:03:00;101823;;;10.12;78.23
57250;BME280;43102;52.014;-0.680;2023-02-03T01:04:00;101823;;;10.12;78.23
57250;BME280;43102;52.014;-0.680;2023-02-03T01:05:00;101823;;;10.12;78.23
57250;BME280;43102;52.014;-0.680;2023-02-03T01:07:00;101818;;;10.18;78.08
57250;BME280;43102;52.014;-0.680;2023-02-03T01:08:00;101818;;;10.18;78.08
57250;BME280;43102;52.014;-0.680;2023-02-03T01:09:00;101818;;;10.18;78.08
57250;BME280;43102;52.014;-0.680;2023-02-03T01:10:00;101818;;;10.18;78.08
57250;BME280;43102;52.014;-0.680;2023-02-03T01:11:04;101818;;;10.18;78.08
57250;BME280;43102;52.014;-0.680;2023-02-03T01:12:00;101819;;;10.16;78.12
57250;BME280;43102;52.014;-0.680;2023-02-03T01:13:00;101819;;;10.16;78.12
57250;BME280;43102;52.014;-0.680;2023-02-03T01:14:00;101819;;;10.16;78.12
57250;BME280;43102;52.014;-0.680;2023-02-03T01:15:00;101819;;;10.16;78.12
57250;BME280;43102;52.014;-0.680;2023-02-03T01:16:00;101819;;;10.16;78.12
57250;BME280;43102;52.014;-0.680;2023-02-03T01:17:00;101824;;;10.14;78.42
57250;BME280;43102;52.014;-0.680;2023-02-03T01:18:00;101824;;;10.14;78.42
57250;BME280;43102;52.014;-0.680;2023-02-03T01:19:00;101824;;;10.14;78.42
57250;BME280;43102;52.014;-0.680;2023-02-03T01:20:00;101824;;;10.14;78.42
57250;BME280;43102;52.014;-0.680;2023-02-03T01:21:04;101824;;;10.14;78.42
57250;BME280;43102;52.014;-0.680;2023-02-03T01:22:00;101820;;;10.26;78.04
57250;BME280;43102;52.014;-0.680;2023-02-03T01:23:00;101820;;;10.26;78.04
57250;BME280;43102;52.014;-0.680;2023-02-03T01:24:00;101820;;;10.26;78.04
57250;BME280;43102;52.014;-0.680;2023-02-03T01:25:00;101820;;;10.26;78.04
57250;BME280;43102;52.014;-0.680;2023-02-03T01:26:02;101820;;;10.26;78.04
57250;BME280;43102;52.014;-0.680;2023-02-03T01:27:00;101812;;;10.21;78.35
57250;BME280;43102;52.014;-0.680;2023-02-03T01:28:00;101812;;;10.21;78.35
57250;BME280;43102;52.014;-0.680;2023-02-03T01:29:00;101812;;;10.21;78.35
57250;BME280;43102;52.014;-0.680;2023-02-03T01:30:00;101812;;;10.21;78.35
57250;BME280;43102;52.014;-0.680;2023-02-03T01:31:08;101812;;;10.21;78.35
57250;BME280;43102;52.014;-0.680;2023-02-03T01:32:00;101809;;;10.25;77.94
57250;BME280;43102;52.014;-0.680;2023-02-03T01:33:00;101809;;;10.25;77.94
57250;BME280;43102;52.014;-0.680;2023-02-03T01:34:00;101809;;;10.25;77.94
57250;BME280;43102;52.014;-0.680;2023-02-03T01:35:00;101809;;;10.25;77.94
57250;BME280;43102;52.014;-0.680;2023-02-03T01:36:00;101809;;;10.25;77.94
57250;BME280;43102;52.014;-0.680;2023-02-03T01:37:00;101798;;;10.21;78.13
57250;BME280;43102;52.014;-0.680;2023-02-03T01:38:00;101798;;;10.21;78.13
57250;BME280;43102;52.014;-0.680;2023-02-03T01:39:00;101798;;;10.21;78.13
57250;BME280;43102;52.014;-0.680;2023-02-03T01:40:00;101798;;;10.21;78.13
57250;BME280;43102;52.014;-0.680;2023-02-03T01:41:00;101798;;;10.21;78.13
57250;BME280;43102;52.014;-0.680;2023-02-03T01:42:00;101799;;;10.10;78.54
57250;BME280;43102;52.014;-0.680;2023-02-03T01:43:00;101799;;;10.10;78.54
57250;BME280;43102;52.014;-0.680;2023-02-03T01:44:00;101799;;;10.10;78.54
57250;BME280;43102;52.014;-0.680;2023-02-03T01:45:00;101799;;;10.10;78.54
57250;BME280;43102;52.014;-0.680;2023-02-03T01:46:01;101799;;;10.10;78.54
57250;BME280;43102;52.014;-0.680;2023-02-03T01:47:00;101791;;;10.12;78.40
57250;BME280;43102;52.014;-0.680;2023-02-03T01:48:00;101791;;;10.12;78.40
57250;BME280;43102;52.014;-0.680;2023-02-03T01:49:17;101791;;;10.12;78.40
57250;BME280;43102;52.014;-0.680;2023-02-03T01:51:00;101791;;;10.12;78.40
57250;BME280;43102;52.014;-0.680;2023-02-03T01:52:00;101789;;;10.11;78.32
57250;BME280;43102;52.014;-0.680;2023-02-03T01:53:01;101789;;;10.11;78.32
57250;BME280;43102;52.014;-0.680;2023-02-03T01:54:00;101789;;;10.11;78.32
57250;BME280;43102;52.014;-0.680;2023-02-03T01:55:01;101789;;;10.11;78.32
57250;BME280;43102;52.014;-0.680;2023-02-03T01:56:00;101789;;;10.11;78.32
57250;BME280;43102;52.014;-0.680;2023-02-03T01:57:00;101803;;;10.04;78.86
57250;BME280;43102;52.014;-0.680;2023-02-03T01:58:02;101803;;;10.04;78.86
57250;BME280;43102;52.014;-0.680;2023-02-03T01:59:00;101803;;;10.04;78.86
57250;BME280;43102;52.014;-0.680;2023-02-03T02:00:00;101803;;;10.04;78.86
57250;BME280;43102;52.014;-0.680;2023-02-03T02:01:00;101803;;;10.04;78.86
57250;BME280;43102;52.014;-0.680;2023-02-03T02:02:00;101808;;;10.07;78.62
57250;BME280;43102;52.014;-0.680;2023-02-03T02:03:00;101808;;;10.07;78.62
57250;BME280;43102;52.014;-0.680;2023-02-03T02:04:00;101808;;;10.07;78.62
57250;BME280;43102;52.014;-0.680;2023-02-03T02:06:02;101808;;;10.07;78.62
57250;BME280;43102;52.014;-0.680;2023-02-03T02:07:00;101821;;;10.03;78.67
57250;BME280;43102;52.014;-0.680;2023-02-03T02:08:00;101821;;;10.03;78.67
57250;BME280;43102;52.014;-0.680;2023-02-03T02:09:00;101821;;;10.03;78.67
57250;BME280;43102;52.014;-0.680;2023-02-03T02:10:00;101821;;;10.03;78.67
57250;BME280;43102;52.014;-0.680;2023-02-03T02:11:00;101821;;;10.03;78.67
57250;BME280;43102;52.014;-0.680;2023-02-03T02:12:00;101803;;;10.02;78.71
57250;BME280;43102;52.014;-0.680;2023-02-03T02:13:00;101803;;;10.02;78.71
57250;BME280;43102;52.014;-0.680;2023-02-03T02:14:00;101803;;;10.02;78.71
57250;BME280;43102;52.014;-0.680;2023-02-03T02:15:00;101803;;;10.02;78.71
57250;BME280;43102;52.014;-0.680;2023-02-03T02:17:04;101802;;;10.00;78.85
57250;BME280;43102;52.014;-0.680;2023-02-03T02:21:05;101802;;;10.00;78.85
57250;BME280;43102;52.014;-0.680;2023-02-03T02:23:07;101815;;;9.96;79.16
57250;BME280;43102;52.014;-0.680;2023-02-03T02:25:08;101815;;;9.96;79.16
57250;BME280;43102;52.014;-0.680;2023-02-03T02:27:02;101821;;;9.93;79.57
57250;BME280;43102;52.014;-0.680;2023-02-03T02:32:04;101814;;;9.95;79.28
57250;BME280;43102;52.014;-0.680;2023-02-03T02:33:01;101814;;;9.95;79.28
57250;BME280;43102;52.014;-0.680;2023-02-03T02:34:04;101814;;;9.95;79.28
57250;BME280;43102;52.014;-0.680;2023-02-03T02:38:01;101816;;;9.90;79.41
57250;BME280;43102;52.014;-0.680;2023-02-03T02:39:04;101816;;;9.90;79.41
57250;BME280;43102;52.014;-0.680;2023-02-03T02:41:03;101816;;;9.90;79.41
57250;BME280;43102;52.014;-0.680;2023-02-03T02:42:04;101818;;;9.92;79.26
57250;BME280;43102;52.014;-0.680;2023-02-03T02:43:05;101818;;;9.92;79.26
57250;BME280;43102;52.014;-0.680;2023-02-03T02:44:01;101818;;;9.92;79.26
57250;BME280;43102;52.014;-0.680;2023-02-03T02:45:04;101818;;;9.92;79.26
57250;BME280;43102;52.014;-0.680;2023-02-03T02:46:17;101818;;;9.92;79.26
57250;BME280;43102;52.014;-0.680;2023-02-03T02:47:01;101815;;;9.91;79.32
57250;BME280;43102;52.014;-0.680;2023-02-03T02:48:03;101815;;;9.91;79.32
57250;BME280;43102;52.014;-0.680;2023-02-03T02:49:18;101815;;;9.91;79.32
57250;BME280;43102;52.014;-0.680;2023-02-03T02:51:00;101815;;;9.91;79.32
57250;BME280;43102;52.014;-0.680;2023-02-03T02:52:01;101812;;;9.88;79.16
57250;BME280;43102;52.014;-0.680;2023-02-03T02:53:00;101812;;;9.88;79.16
57250;BME280;43102;52.014;-0.680;2023-02-03T02:54:01;101812;;;9.88;79.16
57250;BME280;43102;52.014;-0.680;2023-02-03T02:55:02;101812;;;9.88;79.16
57250;BME280;43102;52.014;-0.680;2023-02-03T02:56:00;101812;;;9.88;79.16
57250;BME280;43102;52.014;-0.680;2023-02-03T02:57:00;101812;;;9.86;79.55
57250;BME280;43102;52.014;-0.680;2023-02-03T02:58:01;101812;;;9.86;79.55
57250;BME280;43102;52.014;-0.680;2023-02-03T02:59:00;101812;;;9.86;79.55
57250;BME280;43102;52.014;-0.680;2023-02-03T03:00:00;101812;;;9.86;79.55
57250;BME280;43102;52.014;-0.680;2023-02-03T03:01:00;101812;;;9.86;79.55
57250;BME280;43102;52.014;-0.680;2023-02-03T03:02:00;101819;;;9.85;79.52
57250;BME280;43102;52.014;-0.680;2023-02-03T03:04:00;101819;;;9.85;79.52
57250;BME280;43102;52.014;-0.680;2023-02-03T03:05:00;101819;;;9.85;79.52
57250;BME280;43102;52.014;-0.680;2023-02-03T03:06:01;101819;;;9.85;79.52
57250;BME280;43102;52.014;-0.680;2023-02-03T03:07:00;101814;;;9.81;79.48
57250;BME280;43102;52.014;-0.680;2023-02-03T03:08:00;101814;;;9.81;79.48
57250;BME280;43102;52.014;-0.680;2023-02-03T03:09:02;101814;;;9.81;79.48
57250;BME280;43102;52.014;-0.680;2023-02-03T03:10:01;101814;;;9.81;79.48
57250;BME280;43102;52.014;-0.680;2023-02-03T03:11:00;101814;;;9.81;79.48
57250;BME280;43102;52.014;-0.680;2023-02-03T03:12:03;101816;;;9.84;79.52
57250;BME280;43102;52.014;-0.680;2023-02-03T03:13:01;101816;;;9.84;79.52
57250;BME280;43102;52.014;-0.680;2023-02-03T03:14:00;101816;;;9.84;79.52
57250;BME280;43102;52.014;-0.680;2023-02-03T03:15:02;101816;;;9.84;79.52
57250;BME280;43102;52.014;-0.680;2023-02-03T03:16:00;101816;;;9.84;79.52
57250;BME280;43102;52.014;-0.680;2023-02-03T03:17:02;101826;;;9.84;79.22
57250;BME280;43102;52.014;-0.680;2023-02-03T03:18:03;101826;;;9.84;79.22
57250;BME280;43102;52.014;-0.680;2023-02-03T03:19:00;101826;;;9.84;79.22
57250;BME280;43102;52.014;-0.680;2023-02-03T03:20:01;101826;;;9.84;79.22
57250;BME280;43102;52.014;-0.680;2023-02-03T03:21:00;101826;;;9.84;79.22
57250;BME280;43102;52.014;-0.680;2023-02-03T03:22:01;101850;;;9.82;79.46
57250;BME280;43102;52.014;-0.680;2023-02-03T03:23:02;101850;;;9.82;79.46
57250;BME280;43102;52.014;-0.680;2023-02-03T03:24:01;101850;;;9.82;79.46
57250;BME280;43102;52.014;-0.680;2023-02-03T03:25:02;101850;;;9.82;79.46
57250;BME280;43102;52.014;-0.680;2023-02-03T03:26:03;101850;;;9.82;79.46
57250;BME280;43102;52.014;-0.680;2023-02-03T03:27:08;101852;;;9.83;79.78
57250;BME280;43102;52.014;-0.680;2023-02-03T03:28:01;101852;;;9.83;79.78
57250;BME280;43102;52.014;-0.680;2023-02-03T03:30:02;101852;;;9.83;79.78
57250;BME280;43102;52.014;-0.680;2023-02-03T03:31:00;101852;;;9.83;79.78
57250;BME280;43102;52.014;-0.680;2023-02-03T03:32:00;101855;;;9.78;80.17
57250;BME280;43102;52.014;-0.680;2023-02-03T03:33:00;101855;;;9.78;80.17
57250;BME280;43102;52.014;-0.680;2023-02-03T03:34:00;101855;;;9.78;80.17
57250;BME280;43102;52.014;-0.680;2023-02-03T03:35:00;101855;;;9.78;80.17
57250;BME280;43102;52.014;-0.680;2023-02-03T03:36:02;101855;;;9.78;80.17
57250;BME280;43102;52.014;-0.680;2023-02-03T03:37:02;101863;;;9.82;80.02
57250;BME280;43102;52.014;-0.680;2023-02-03T03:38:04;101863;;;9.82;80.02
57250;BME280;43102;52.014;-0.680;2023-02-03T03:39:03;101863;;;9.82;80.02
57250;BME280;43102;52.014;-0.680;2023-02-03T03:40:02;101863;;;9.82;80.02
57250;BME280;43102;52.014;-0.680;2023-02-03T03:41:03;101863;;;9.82;80.02
57250;BME280;43102;52.014;-0.680;2023-02-03T03:43:02;101856;;;9.91;79.69
57250;BME280;43102;52.014;-0.680;2023-02-03T03:44:00;101856;;;9.91;79.69
57250;BME280;43102;52.014;-0.680;2023-02-03T03:45:02;101856;;;9.91;79.69
57250;BME280;43102;52.014;-0.680;2023-02-03T03:46:03;101856;;;9.91;79.69
57250;BME280;43102;52.014;-0.680;2023-02-03T03:47:04;101853;;;9.88;79.49
57250;BME280;43102;52.014;-0.680;2023-02-03T03:48:03;101853;;;9.88;79.49
57250;BME280;43102;52.014;-0.680;2023-02-03T03:49:01;101853;;;9.88;79.49
57250;BME280;43102;52.014;-0.680;2023-02-03T03:50:00;101853;;;9.88;79.49
57250;BME280;43102;52.014;-0.680;2023-02-03T03:51:01;101853;;;9.88;79.49
57250;BME280;43102;52.014;-0.680;2023-02-03T03:52:00;101841;;;9.86;79.63
57250;BME280;43102;52.014;-0.680;2023-02-03T03:53:00;101841;;;9.86;79.63
57250;BME280;43102;52.014;-0.680;2023-02-03T03:54:01;101841;;;9.86;79.63
57250;BME280;43102;52.014;-0.680;2023-02-03T03:55:00;101841;;;9.86;79.63
57250;BME280;43102;52.014;-0.680;2023-02-03T03:56:00;101841;;;9.86;79.63
57250;BME280;43102;52.014;-0.680;2023-02-03T03:57:01;101834;;;9.82;79.85
57250;BME280;43102;52.014;-0.680;2023-02-03T03:59:00;101834;;;9.82;79.85
57250;BME280;43102;52.014;-0.680;2023-02-03T04:00:00;101834;;;9.82;79.85
57250;BME280;43102;52.014;-0.680;2023-02-03T04:01:01;101834;;;9.82;79.85
57250;BME280;43102;52.014;-0.680;2023-02-03T04:02:00;101841;;;9.83;79.70
57250;BME280;43102;52.014;-0.680;2023-02-03T04:03:01;101841;;;9.83;79.70
57250;BME280;43102;52.014;-0.680;2023-02-03T04:04:01;101841;;;9.83;79.70
57250;BME280;43102;52.014;-0.680;2023-02-03T04:05:00;101841;;;9.83;79.70
57250;BME280;43102;52.014;-0.680;2023-02-03T04:06:00;101841;;;9.83;79.70
57250;BME280;43102;52.014;-0.680;2023-02-03T04:07:00;101837;;;9.82;79.53
57250;BME280;43102;52.014;-0.680;2023-02-03T04:08:00;101837;;;9.82;79.53
57250;BME280;43102;52.014;-0.680;2023-02-03T04:09:00;101837;;;9.82;79.53
57250;BME280;43102;52.014;-0.680;2023-02-03T04:10:00;101837;;;9.82;79.53
57250;BME280;43102;52.014;-0.680;2023-02-03T04:11:00;101837;;;9.82;79.53
57250;BME280;43102;52.014;-0.680;2023-02-03T04:12:00;101857;;;9.80;79.62
57250;BME280;43102;52.014;-0.680;2023-02-03T04:13:00;101857;;;9.80;79.62
57250;BME280;43102;52.014;-0.680;2023-02-03T04:14:00;101857;;;9.80;79.62
57250;BME280;43102;52.014;-0.680;2023-02-03T04:15:00;101857;;;9.80;79.62
57250;BME280;43102;52.014;-0.680;2023-02-03T04:16:00;101857;;;9.80;79.62
57250;BME280;43102;52.014;-0.680;2023-02-03T04:17:00;101865;;;9.81;79.55
57250;BME280;43102;52.014;-0.680;2023-02-03T04:18:00;101865;;;9.81;79.55
57250;BME280;43102;52.014;-0.680;2023-02-03T04:19:00;101865;;;9.81;79.55
57250;BME280;43102;52.014;-0.680;2023-02-03T04:20:00;101865;;;9.81;79.55
57250;BME280;43102;52.014;-0.680;2023-02-03T04:21:00;101865;;;9.81;79.55
57250;BME280;43102;52.014;-0.680;2023-02-03T04:22:00;101871;;;9.81;79.49
57250;BME280;43102;52.014;-0.680;2023-02-03T04:23:00;101871;;;9.81;79.49
57250;BME280;43102;52.014;-0.680;2023-02-03T04:24:00;101871;;;9.81;79.49
57250;BME280;43102;52.014;-0.680;2023-02-03T04:25:00;101871;;;9.81;79.49
57250;BME280;43102;52.014;-0.680;2023-02-03T04:26:00;101871;;;9.81;79.49
57250;BME280;43102;52.014;-0.680;2023-02-03T04:27:00;101877;;;9.78;79.57
57250;BME280;43102;52.014;-0.680;2023-02-03T04:28:00;101877;;;9.78;79.57
57250;BME280;43102;52.014;-0.680;2023-02-03T04:29:00;101877;;;9.78;79.57
57250;BME280;43102;52.014;-0.680;2023-02-03T04:30:00;101877;;;9.78;79.57
57250;BME280;43102;52.014;-0.680;2023-02-03T04:31:00;101877;;;9.78;79.57
57250;BME280;43102;52.014;-0.680;2023-02-03T04:32:00;101888;;;9.88;79.08
57250;BME280;43102;52.014;-0.680;2023-02-03T04:33:00;101888;;;9.88;79.08
57250;BME280;43102;52.014;-0.680;2023-02-03T04:34:00;101888;;;9.88;79.08
57250;BME280;43102;52.014;-0.680;2023-02-03T04:35:00;101888;;;9.88;79.08
57250;BME280;43102;52.014;-0.680;2023-02-03T04:36:00;101888;;;9.88;79.08
57250;BME280;43102;52.014;-0.680;2023-02-03T04:37:00;101887;;;9.82;79.16
57250;BME280;43102;52.014;-0.680;2023-02-03T04:38:00;101887;;;9.82;79.16
57250;BME280;43102;52.014;-0.680;2023-02-03T04:39:00;101887;;;9.82;79.16
57250;BME280;43102;52.014;-0.680;2023-02-03T04:40:00;101887;;;9.82;79.16
57250;BME280;43102;52.014;-0.680;2023-02-03T04:41:00;101887;;;9.82;79.16
57250;BME280;43102;52.014;-0.680;2023-02-03T04:42:00;101876;;;9.83;78.99
57250;BME280;43102;52.014;-0.680;2023-02-03T04:43:04;101876;;;9.83;78.99
57250;BME280;43102;52.014;-0.680;2023-02-03T04:44:00;101876;;;9.83;78.99
57250;BME280;43102;52.014;-0.680;2023-02-03T04:45:00;101876;;;9.83;78.99
57250;BME280;43102;52.014;-0.680;2023-02-03T04:46:00;101876;;;9.83;78.99
57250;BME280;43102;52.014;-0.680;2023-02-03T04:47:00;101880;;;9.90;78.56
57250;BME280;43102;52.014;-0.680;2023-02-03T04:48:00;101880;;;9.90;78.56
57250;BME280;43102;52.014;-0.680;2023-02-03T04:49:00;101880;;;9.90;78.56
57250;BME280;43102;52.014;-0.680;2023-02-03T04:50:00;101880;;;9.90;78.56
57250;BME280;43102;52.014;-0.680;2023-02-03T04:51:00;101880;;;9.90;78.56
57250;BME280;43102;52.014;-0.680;2023-02-03T04:52:00;101879;;;9.99;77.92
57250;BME280;43102;52.014;-0.680;2023-02-03T04:53:00;101879;;;9.99;77.92
57250;BME280;43102;52.014;-0.680;2023-02-03T04:54:00;101879;;;9.99;77.92
57250;BME280;43102;52.014;-0.680;2023-02-03T04:55:00;101879;;;9.99;77.92
57250;BME280;43102;52.014;-0.680;2023-02-03T04:56:01;101879;;;9.99;77.92
57250;BME280;43102;52.014;-0.680;2023-02-03T04:57:00;101881;;;10.08;77.34
57250;BME280;43102;52.014;-0.680;2023-02-03T04:58:00;101881;;;10.08;77.34
57250;BME280;43102;52.014;-0.680;2023-02-03T04:59:00;101881;;;10.08;77.34
57250;BME280;43102;52.014;-0.680;2023-02-03T05:00:00;101881;;;10.08;77.34
57250;BME280;43102;52.014;-0.680;2023-02-03T05:01:04;101881;;;10.08;77.34
57250;BME280;43102;52.014;-0.680;2023-02-03T05:02:01;101895;;;10.14;76.90
57250;BME280;43102;52.014;-0.680;2023-02-03T05:03:00;101895;;;10.14;76.90
57250;BME280;43102;52.014;-0.680;2023-02-03T05:04:00;101895;;;10.14;76.90
57250;BME280;43102;52.014;-0.680;2023-02-03T05:05:00;101895;;;10.14;76.90
57250;BME280;43102;52.014;-0.680;2023-02-03T05:06:00;101895;;;10.14;76.90
57250;BME280;43102;52.014;-0.680;2023-02-03T05:07:00;101888;;;10.18;76.47
57250;BME280;43102;52.014;-0.680;2023-02-03T05:08:00;101888;;;10.18;76.47
57250;BME280;43102;52.014;-0.680;2023-02-03T05:09:00;101888;;;10.18;76.47
57250;BME280;43102;52.014;-0.680;2023-02-03T05:10:00;101888;;;10.18;76.47
57250;BME280;43102;52.014;-0.680;2023-02-03T05:11:00;101888;;;10.18;76.47
57250;BME280;43102;52.014;-0.680;2023-02-03T05:12:00;101892;;;10.27;76.16
57250;BME280;43102;52.014;-0.680;2023-02-03T05:13:00;101892;;;10.27;76.16
57250;BME280;43102;52.014;-0.680;2023-02-03T05:14:00;101892;;;10.27;76.16
57250;BME280;43102;52.014;-0.680;2023-02-03T05:15:00;101892;;;10.27;76.16
57250;BME280;43102;52.014;-0.680;2023-02-03T05:16:00;101892;;;10.27;76.16
57250;BME280;43102;52.014;-0.680;2023-02-03T05:17:00;101882;;;10.22;76.05
57250;BME280;43102;52.014;-0.680;2023-02-03T05:18:00;101882;;;10.22;76.05
57250;BME280;43102;52.014;-0.680;2023-02-03T05:19:00;101882;;;10.22;76.05
57250;BME280;43102;52.014;-0.680;2023-02-03T05:20:00;101882;;;10.22;76.05
57250;BME280;43102;52.014;-0.680;2023-02-03T05:21:00;101882;;;10.22;76.05
57250;BME280;43102;52.014;-0.680;2023-02-03T05:22:00;101876;;;10.24;75.81
57250;BME280;43102;52.014;-0.680;2023-02-03T05:23:00;101876;;;10.24;75.81
57250;BME280;43102;52.014;-0.680;2023-02-03T05:24:00;101876;;;10.24;75.81
57250;BME280;43102;52.014;-0.680;2023-02-03T05:25:00;101876;;;10.24;75.81
57250;BME280;43102;52.014;-0.680;2023-02-03T05:26:00;101876;;;10.24;75.81
57250;BME280;43102;52.014;-0.680;2023-02-03T05:27:00;101887;;;10.22;75.99
57250;BME280;43102;52.014;-0.680;2023-02-03T05:28:00;101887;;;10.22;75.99
57250;BME280;43102;52.014;-0.680;2023-02-03T05:29:00;101887;;;10.22;75.99
57250;BME280;43102;52.014;-0.680;2023-02-03T05:30:00;101887;;;10.22;75.99
57250;BME280;43102;52.014;-0.680;2023-02-03T05:31:00;101887;;;10.22;75.99
57250;BME280;43102;52.014;-0.680;2023-02-03T05:32:00;101894;;;10.17;76.20
57250;BME280;43102;52.014;-0.680;2023-02-03T05:33:00;101894;;;10.17;76.20
57250;BME280;43102;52.014;-0.680;2023-02-03T05:34:00;101894;;;10.17;76.20
57250;BME280;43102;52.014;-0.680;2023-02-03T05:35:00;101894;;;10.17;76.20
57250;BME280;43102;52.014;-0.680;2023-02-03T05:36:00;101894;;;10.17;76.20
57250;BME280;43102;52.014;-0.680;2023-02-03T05:37:00;101904;;;10.19;76.12
57250;BME280;43102;52.014;-0.680;2023-02-03T05:38:00;101904;;;10.19;76.12
57250;BME280;43102;52.014;-0.680;2023-02-03T05:39:00;101904;;;10.19;76.12
57250;BME280;43102;52.014;-0.680;2023-02-03T05:40:00;101904;;;10.19;76.12
57250;BME280;43102;52.014;-0.680;2023-02-03T05:41:00;101904;;;10.19;76.12
57250;BME280;43102;52.014;-0.680;2023-02-03T05:42:00;101904;;;10.17;76.11
57250;BME280;43102;52.014;-0.680;2023-02-03T05:43:00;101904;;;10.17;76.11
57250;BME280;43102;52.014;-0.680;2023-02-03T05:44:00;101904;;;10.17;76.11
57250;BME280;43102;52.014;-0.680;2023-02-03T05:45:00;101904;;;10.17;76.11
57250;BME280;43102;52.014;-0.680;2023-02-03T05:46:00;101904;;;10.17;76.11
57250;BME280;43102;52.014;-0.680;2023-02-03T05:47:00;101905;;;10.17;76.19